If you wish to contribute or participate in the discussions about articles you are invited to join SKYbrary as a registered user

 Actions

Toul Rosières Air Base

From SKYbrary Wiki

LFSL
Airport
ICAO: LFSL – IATA: BVE
Summary
Name Toul Rosières Air Base
Region Europe
Territory France FR.gif
Location , Lorraine
Serving Brive
Elevation 285.293 m
936 ft
936 ft285.293 m
Type small airport
Coordinates 45° 9' 3.00" N, 1° 28' 9.00" E
Runways
Designator Length Width Surface ROPS


METAR
Observation LFSL 181430Z AUTO 28004KT 230V350 CAVOK 28/18 Q1013 TEMPO FEW040TCU
Station Toul / Rosieres
Date/Time 18 August 2019 14:30:00
Wind direction 280°
Wind speed 04 kts
Lowest cloud amount few clouds
Temperature 28°C
Dew point 18°C
Humidity 54%
QNH 1013 hPa
Weather condition n/a